sensor_id;sensor_type;location;lat;lon;timestamp;P1;durP1;ratioP1;P2;durP2;ratioP2
50309;SDS011;36207;51.850;21.698;2022-07-22T00:00:23;11.20;;;7.10;;
50309;SDS011;36207;51.850;21.698;2022-07-22T00:03:02;14.90;;;7.20;;
50309;SDS011;36207;51.850;21.698;2022-07-22T00:05:28;12.10;;;6.60;;
50309;SDS011;36207;51.850;21.698;2022-07-22T00:07:54;11.60;;;6.10;;
50309;SDS011;36207;51.850;21.698;2022-07-22T00:10:21;12.20;;;6.50;;
50309;SDS011;36207;51.850;21.698;2022-07-22T00:12:47;11.40;;;7.00;;
50309;SDS011;36207;51.850;21.698;2022-07-22T00:15:17;10.70;;;7.20;;
50309;SDS011;36207;51.850;21.698;2022-07-22T00:17:43;16.90;;;7.50;;
50309;SDS011;36207;51.850;21.698;2022-07-22T00:20:10;10.60;;;7.00;;
50309;SDS011;36207;51.850;21.698;2022-07-22T00:22:36;16.00;;;6.80;;
50309;SDS011;36207;51.850;21.698;2022-07-22T00:25:02;13.80;;;7.20;;
50309;SDS011;36207;51.850;21.698;2022-07-22T00:27:30;11.40;;;7.00;;
50309;SDS011;36207;51.850;21.698;2022-07-22T00:29:56;13.20;;;7.30;;
50309;SDS011;36207;51.850;21.698;2022-07-22T00:32:22;9.70;;;6.60;;
50309;SDS011;36207;51.850;21.698;2022-07-22T00:34:49;11.50;;;6.80;;
50309;SDS011;36207;51.850;21.698;2022-07-22T00:37:15;12.00;;;6.80;;
50309;SDS011;36207;51.850;21.698;2022-07-22T00:39:41;9.90;;;6.70;;
50309;SDS011;36207;51.850;21.698;2022-07-22T00:42:07;11.20;;;7.00;;
50309;SDS011;36207;51.850;21.698;2022-07-22T00:44:34;10.40;;;6.80;;
50309;SDS011;36207;51.850;21.698;2022-07-22T00:47:00;10.90;;;6.80;;
50309;SDS011;36207;51.850;21.698;2022-07-22T00:49:26;11.90;;;6.80;;
50309;SDS011;36207;51.850;21.698;2022-07-22T00:51:52;13.70;;;7.10;;
50309;SDS011;36207;51.850;21.698;2022-07-22T00:54:19;13.80;;;7.30;;
50309;SDS011;36207;51.850;21.698;2022-07-22T00:56:45;9.80;;;6.60;;
50309;SDS011;36207;51.850;21.698;2022-07-22T00:59:11;13.40;;;6.70;;
50309;SDS011;36207;51.850;21.698;2022-07-22T01:01:38;13.50;;;7.20;;
50309;SDS011;36207;51.850;21.698;2022-07-22T01:04:05;11.50;;;7.30;;
50309;SDS011;36207;51.850;21.698;2022-07-22T01:06:31;12.30;;;7.10;;
50309;SDS011;36207;51.850;21.698;2022-07-22T01:08:58;12.50;;;7.30;;
50309;SDS011;36207;51.850;21.698;2022-07-22T01:11:25;12.00;;;6.70;;
50309;SDS011;36207;51.850;21.698;2022-07-22T01:13:53;13.70;;;7.20;;
50309;SDS011;36207;51.850;21.698;2022-07-22T01:16:21;11.90;;;7.10;;
50309;SDS011;36207;51.850;21.698;2022-07-22T01:18:47;12.00;;;6.90;;
50309;SDS011;36207;51.850;21.698;2022-07-22T01:21:14;11.40;;;7.00;;
50309;SDS011;36207;51.850;21.698;2022-07-22T01:23:42;13.80;;;7.20;;
50309;SDS011;36207;51.850;21.698;2022-07-22T01:26:09;10.80;;;7.50;;
50309;SDS011;36207;51.850;21.698;2022-07-22T01:28:35;11.70;;;7.50;;
50309;SDS011;36207;51.850;21.698;2022-07-22T01:31:02;14.80;;;7.70;;
50309;SDS011;36207;51.850;21.698;2022-07-22T01:33:28;11.50;;;7.70;;
50309;SDS011;36207;51.850;21.698;2022-07-22T01:35:55;13.20;;;7.50;;
50309;SDS011;36207;51.850;21.698;2022-07-22T01:38:21;12.30;;;7.50;;
50309;SDS011;36207;51.850;21.698;2022-07-22T01:40:47;13.10;;;7.40;;
50309;SDS011;36207;51.850;21.698;2022-07-22T01:43:14;15.60;;;7.20;;
50309;SDS011;36207;51.850;21.698;2022-07-22T01:45:47;14.80;;;7.30;;
50309;SDS011;36207;51.850;21.698;2022-07-22T01:48:15;12.60;;;7.20;;
50309;SDS011;36207;51.850;21.698;2022-07-22T01:50:41;11.00;;;7.30;;
50309;SDS011;36207;51.850;21.698;2022-07-22T01:53:09;13.40;;;7.40;;
50309;SDS011;36207;51.850;21.698;2022-07-22T01:55:35;11.80;;;7.10;;
50309;SDS011;36207;51.850;21.698;2022-07-22T01:58:02;12.90;;;7.20;;
50309;SDS011;36207;51.850;21.698;2022-07-22T02:00:30;14.50;;;7.20;;
50309;SDS011;36207;51.850;21.698;2022-07-22T02:02:57;14.90;;;7.40;;
50309;SDS011;36207;51.850;21.698;2022-07-22T02:05:23;17.60;;;7.30;;
50309;SDS011;36207;51.850;21.698;2022-07-22T02:07:50;12.20;;;7.60;;
50309;SDS011;36207;51.850;21.698;2022-07-22T02:10:16;13.20;;;7.10;;
50309;SDS011;36207;51.850;21.698;2022-07-22T02:12:43;12.00;;;7.30;;
50309;SDS011;36207;51.850;21.698;2022-07-22T02:15:10;11.50;;;7.00;;
50309;SDS011;36207;51.850;21.698;2022-07-22T02:17:36;11.50;;;6.90;;
50309;SDS011;36207;51.850;21.698;2022-07-22T02:20:03;16.20;;;6.80;;
50309;SDS011;36207;51.850;21.698;2022-07-22T02:22:29;12.10;;;7.00;;
50309;SDS011;36207;51.850;21.698;2022-07-22T02:24:55;12.30;;;6.70;;
50309;SDS011;36207;51.850;21.698;2022-07-22T02:27:22;12.20;;;6.80;;
50309;SDS011;36207;51.850;21.698;2022-07-22T02:29:48;12.10;;;7.00;;
50309;SDS011;36207;51.850;21.698;2022-07-22T02:32:14;12.80;;;6.40;;
50309;SDS011;36207;51.850;21.698;2022-07-22T02:34:41;13.70;;;7.00;;
50309;SDS011;36207;51.850;21.698;2022-07-22T02:37:07;14.20;;;6.80;;
50309;SDS011;36207;51.850;21.698;2022-07-22T02:39:33;13.80;;;6.90;;
50309;SDS011;36207;51.850;21.698;2022-07-22T02:41:59;12.10;;;7.00;;
50309;SDS011;36207;51.850;21.698;2022-07-22T02:44:25;13.70;;;7.20;;
50309;SDS011;36207;51.850;21.698;2022-07-22T02:46:51;13.60;;;6.70;;
50309;SDS011;36207;51.850;21.698;2022-07-22T02:49:18;12.30;;;6.90;;
50309;SDS011;36207;51.850;21.698;2022-07-22T02:51:44;13.30;;;7.00;;
50309;SDS011;36207;51.850;21.698;2022-07-22T02:54:10;15.60;;;7.50;;
50309;SDS011;36207;51.850;21.698;2022-07-22T02:56:36;11.60;;;7.30;;
50309;SDS011;36207;51.850;21.698;2022-07-22T02:59:03;13.80;;;6.80;;
50309;SDS011;36207;51.850;21.698;2022-07-22T03:01:29;13.40;;;6.80;;
50309;SDS011;36207;51.850;21.698;2022-07-22T03:03:55;15.00;;;6.80;;
50309;SDS011;36207;51.850;21.698;2022-07-22T03:06:21;11.80;;;6.90;;
50309;SDS011;36207;51.850;21.698;2022-07-22T03:08:48;14.10;;;7.30;;
50309;SDS011;36207;51.850;21.698;2022-07-22T03:11:14;16.10;;;7.30;;
50309;SDS011;36207;51.850;21.698;2022-07-22T03:13:40;11.60;;;6.80;;
50309;SDS011;36207;51.850;21.698;2022-07-22T03:16:06;13.20;;;6.70;;
50309;SDS011;36207;51.850;21.698;2022-07-22T03:18:33;14.90;;;6.60;;
50309;SDS011;36207;51.850;21.698;2022-07-22T03:21:00;13.20;;;7.30;;
50309;SDS011;36207;51.850;21.698;2022-07-22T03:23:27;14.40;;;7.40;;
50309;SDS011;36207;51.850;21.698;2022-07-22T03:25:54;13.20;;;7.20;;
50309;SDS011;36207;51.850;21.698;2022-07-22T03:28:22;14.80;;;6.80;;
50309;SDS011;36207;51.850;21.698;2022-07-22T03:30:49;11.60;;;6.50;;
50309;SDS011;36207;51.850;21.698;2022-07-22T03:33:15;16.70;;;7.80;;
50309;SDS011;36207;51.850;21.698;2022-07-22T03:35:41;12.90;;;6.90;;
50309;SDS011;36207;51.850;21.698;2022-07-22T03:38:07;12.00;;;7.10;;
50309;SDS011;36207;51.850;21.698;2022-07-22T03:40:33;14.20;;;6.60;;
50309;SDS011;36207;51.850;21.698;2022-07-22T03:42:59;12.50;;;6.50;;
50309;SDS011;36207;51.850;21.698;2022-07-22T03:45:26;15.50;;;6.60;;
50309;SDS011;36207;51.850;21.698;2022-07-22T03:47:52;13.00;;;7.00;;
50309;SDS011;36207;51.850;21.698;2022-07-22T03:50:20;14.90;;;6.60;;
50309;SDS011;36207;51.850;21.698;2022-07-22T03:52:46;14.60;;;6.80;;
50309;SDS011;36207;51.850;21.698;2022-07-22T03:55:12;14.40;;;6.40;;
50309;SDS011;36207;51.850;21.698;2022-07-22T03:57:38;12.80;;;6.60;;
50309;SDS011;36207;51.850;21.698;2022-07-22T04:00:05;16.60;;;7.20;;
50309;SDS011;36207;51.850;21.698;2022-07-22T04:02:32;13.70;;;7.10;;
50309;SDS011;36207;51.850;21.698;2022-07-22T04:04:58;16.30;;;6.90;;
50309;SDS011;36207;51.850;21.698;2022-07-22T04:07:24;11.90;;;6.70;;
50309;SDS011;36207;51.850;21.698;2022-07-22T04:09:50;13.10;;;6.50;;
50309;SDS011;36207;51.850;21.698;2022-07-22T04:12:16;16.50;;;6.90;;
50309;SDS011;36207;51.850;21.698;2022-07-22T04:14:42;13.50;;;6.80;;
50309;SDS011;36207;51.850;21.698;2022-07-22T04:17:09;11.50;;;6.60;;
50309;SDS011;36207;51.850;21.698;2022-07-22T04:19:35;13.40;;;6.40;;
50309;SDS011;36207;51.850;21.698;2022-07-22T04:22:01;13.80;;;6.20;;
50309;SDS011;36207;51.850;21.698;2022-07-22T04:24:27;10.00;;;6.40;;
50309;SDS011;36207;51.850;21.698;2022-07-22T04:26:54;12.10;;;6.70;;
50309;SDS011;36207;51.850;21.698;2022-07-22T04:29:20;10.50;;;6.70;;
50309;SDS011;36207;51.850;21.698;2022-07-22T04:31:46;16.00;;;6.80;;
50309;SDS011;36207;51.850;21.698;2022-07-22T04:34:12;13.00;;;6.50;;
50309;SDS011;36207;51.850;21.698;2022-07-22T04:36:38;10.90;;;6.70;;
50309;SDS011;36207;51.850;21.698;2022-07-22T04:39:05;13.40;;;6.70;;
50309;SDS011;36207;51.850;21.698;2022-07-22T04:41:31;10.90;;;6.80;;
50309;SDS011;36207;51.850;21.698;2022-07-22T04:43:57;14.50;;;7.00;;
50309;SDS011;36207;51.850;21.698;2022-07-22T04:46:23;13.30;;;6.90;;
50309;SDS011;36207;51.850;21.698;2022-07-22T04:48:50;11.40;;;6.80;;
50309;SDS011;36207;51.850;21.698;2022-07-22T04:51:16;12.20;;;7.00;;
50309;SDS011;36207;51.850;21.698;2022-07-22T04:53:42;14.50;;;7.10;;
50309;SDS011;36207;51.850;21.698;2022-07-22T04:56:09;15.40;;;6.80;;
50309;SDS011;36207;51.850;21.698;2022-07-22T04:58:35;12.50;;;6.80;;
50309;SDS011;36207;51.850;21.698;2022-07-22T05:01:01;15.50;;;7.10;;
50309;SDS011;36207;51.850;21.698;2022-07-22T05:03:27;11.20;;;6.90;;
50309;SDS011;36207;51.850;21.698;2022-07-22T05:05:53;11.40;;;6.80;;
50309;SDS011;36207;51.850;21.698;2022-07-22T05:08:19;12.30;;;6.50;;
50309;SDS011;36207;51.850;21.698;2022-07-22T05:10:45;13.50;;;6.20;;
50309;SDS011;36207;51.850;21.698;2022-07-22T05:13:12;11.40;;;6.90;;
50309;SDS011;36207;51.850;21.698;2022-07-22T05:15:39;10.50;;;6.30;;
50309;SDS011;36207;51.850;21.698;2022-07-22T05:18:05;14.30;;;6.00;;
50309;SDS011;36207;51.850;21.698;2022-07-22T05:20:32;9.70;;;6.10;;
50309;SDS011;36207;51.850;21.698;2022-07-22T05:22:58;7.60;;;5.90;;
50309;SDS011;36207;51.850;21.698;2022-07-22T05:25:24;10.90;;;6.00;;
50309;SDS011;36207;51.850;21.698;2022-07-22T05:27:51;10.60;;;6.10;;
50309;SDS011;36207;51.850;21.698;2022-07-22T05:30:19;10.00;;;6.30;;
50309;SDS011;36207;51.850;21.698;2022-07-22T05:32:46;8.90;;;5.80;;
50309;SDS011;36207;51.850;21.698;2022-07-22T05:35:12;11.80;;;6.20;;
50309;SDS011;36207;51.850;21.698;2022-07-22T05:37:38;9.60;;;5.90;;
50309;SDS011;36207;51.850;21.698;2022-07-22T05:40:05;13.00;;;6.10;;
50309;SDS011;36207;51.850;21.698;2022-07-22T05:42:32;10.80;;;5.90;;
50309;SDS011;36207;51.850;21.698;2022-07-22T05:44:58;8.90;;;5.90;;
50309;SDS011;36207;51.850;21.698;2022-07-22T05:47:24;11.80;;;6.10;;
50309;SDS011;36207;51.850;21.698;2022-07-22T05:49:50;11.90;;;5.70;;
50309;SDS011;36207;51.850;21.698;2022-07-22T05:52:16;8.30;;;5.60;;
50309;SDS011;36207;51.850;21.698;2022-07-22T05:54:42;10.80;;;6.00;;
50309;SDS011;36207;51.850;21.698;2022-07-22T05:57:09;7.90;;;5.50;;
50309;SDS011;36207;51.850;21.698;2022-07-22T05:59:36;9.70;;;5.80;;
50309;SDS011;36207;51.850;21.698;2022-07-22T06:02:03;12.20;;;6.10;;
50309;SDS011;36207;51.850;21.698;2022-07-22T06:04:29;11.80;;;5.90;;
50309;SDS011;36207;51.850;21.698;2022-07-22T06:06:55;10.40;;;6.30;;
50309;SDS011;36207;51.850;21.698;2022-07-22T06:09:21;10.50;;;6.10;;
50309;SDS011;36207;51.850;21.698;2022-07-22T06:11:48;9.40;;;6.20;;
50309;SDS011;36207;51.850;21.698;2022-07-22T06:14:14;11.00;;;6.20;;
50309;SDS011;36207;51.850;21.698;2022-07-22T06:16:40;11.60;;;5.60;;
50309;SDS011;36207;51.850;21.698;2022-07-22T06:19:06;12.20;;;6.40;;
50309;SDS011;36207;51.850;21.698;2022-07-22T06:21:32;10.40;;;6.30;;
50309;SDS011;36207;51.850;21.698;2022-07-22T06:23:58;11.70;;;6.30;;
50309;SDS011;36207;51.850;21.698;2022-07-22T06:26:25;11.70;;;6.10;;
50309;SDS011;36207;51.850;21.698;2022-07-22T06:28:51;10.90;;;6.30;;
50309;SDS011;36207;51.850;21.698;2022-07-22T06:31:17;10.30;;;6.10;;
50309;SDS011;36207;51.850;21.698;2022-07-22T06:33:43;10.70;;;5.80;;
50309;SDS011;36207;51.850;21.698;2022-07-22T06:36:10;10.00;;;6.10;;
50309;SDS011;36207;51.850;21.698;2022-07-22T06:38:37;11.00;;;5.70;;
50309;SDS011;36207;51.850;21.698;2022-07-22T06:41:03;9.80;;;5.50;;
50309;SDS011;36207;51.850;21.698;2022-07-22T06:43:29;12.60;;;5.80;;
50309;SDS011;36207;51.850;21.698;2022-07-22T06:45:56;9.60;;;5.70;;
50309;SDS011;36207;51.850;21.698;2022-07-22T06:48:22;9.20;;;5.50;;
50309;SDS011;36207;51.850;21.698;2022-07-22T06:50:48;8.10;;;5.80;;
50309;SDS011;36207;51.850;21.698;2022-07-22T06:53:14;9.50;;;5.80;;
50309;SDS011;36207;51.850;21.698;2022-07-22T06:55:41;11.70;;;5.60;;
50309;SDS011;36207;51.850;21.698;2022-07-22T06:58:07;10.50;;;5.80;;
50309;SDS011;36207;51.850;21.698;2022-07-22T07:00:34;13.20;;;5.50;;
50309;SDS011;36207;51.850;21.698;2022-07-22T07:03:00;9.00;;;5.50;;
50309;SDS011;36207;51.850;21.698;2022-07-22T07:05:27;8.70;;;5.20;;
50309;SDS011;36207;51.850;21.698;2022-07-22T07:07:55;13.00;;;5.60;;
50309;SDS011;36207;51.850;21.698;2022-07-22T07:10:22;8.00;;;5.20;;
50309;SDS011;36207;51.850;21.698;2022-07-22T07:12:48;8.90;;;5.30;;
50309;SDS011;36207;51.850;21.698;2022-07-22T07:15:14;11.50;;;5.50;;
50309;SDS011;36207;51.850;21.698;2022-07-22T07:17:40;10.50;;;5.30;;
50309;SDS011;36207;51.850;21.698;2022-07-22T07:20:06;10.70;;;5.20;;
50309;SDS011;36207;51.850;21.698;2022-07-22T07:22:33;10.30;;;4.90;;
50309;SDS011;36207;51.850;21.698;2022-07-22T07:25:03;11.80;;;5.40;;
50309;SDS011;36207;51.850;21.698;2022-07-22T07:27:30;7.90;;;5.20;;
50309;SDS011;36207;51.850;21.698;2022-07-22T07:29:57;8.00;;;4.70;;
50309;SDS011;36207;51.850;21.698;2022-07-22T07:32:23;8.80;;;5.30;;
50309;SDS011;36207;51.850;21.698;2022-07-22T07:34:49;7.10;;;4.70;;
50309;SDS011;36207;51.850;21.698;2022-07-22T07:37:15;8.90;;;4.80;;
50309;SDS011;36207;51.850;21.698;2022-07-22T07:39:42;7.60;;;4.50;;
50309;SDS011;36207;51.850;21.698;2022-07-22T07:42:08;9.30;;;5.10;;
50309;SDS011;36207;51.850;21.698;2022-07-22T07:44:34;8.90;;;4.70;;
50309;SDS011;36207;51.850;21.698;2022-07-22T07:47:00;9.60;;;4.30;;
50309;SDS011;36207;51.850;21.698;2022-07-22T07:49:26;6.80;;;4.50;;
50309;SDS011;36207;51.850;21.698;2022-07-22T07:51:52;6.70;;;4.10;;
50309;SDS011;36207;51.850;21.698;2022-07-22T07:54:19;6.70;;;4.70;;
50309;SDS011;36207;51.850;21.698;2022-07-22T07:56:46;7.80;;;4.50;;
50309;SDS011;36207;51.850;21.698;2022-07-22T07:59:12;8.80;;;4.80;;
50309;SDS011;36207;51.850;21.698;2022-07-22T08:01:39;14.00;;;4.80;;
50309;SDS011;36207;51.850;21.698;2022-07-22T08:04:05;10.70;;;4.60;;
50309;SDS011;36207;51.850;21.698;2022-07-22T08:06:32;8.30;;;4.30;;
50309;SDS011;36207;51.850;21.698;2022-07-22T08:09:00;8.40;;;4.50;;
50309;SDS011;36207;51.850;21.698;2022-07-22T08:11:26;7.20;;;4.20;;
50309;SDS011;36207;51.850;21.698;2022-07-22T08:13:52;6.90;;;4.20;;
50309;SDS011;36207;51.850;21.698;2022-07-22T08:16:18;6.80;;;4.30;;
50309;SDS011;36207;51.850;21.698;2022-07-22T08:18:44;6.50;;;4.10;;
50309;SDS011;36207;51.850;21.698;2022-07-22T08:21:11;9.10;;;4.40;;
50309;SDS011;36207;51.850;21.698;2022-07-22T08:23:37;9.70;;;4.40;;
50309;SDS011;36207;51.850;21.698;2022-07-22T08:26:03;7.10;;;4.40;;
50309;SDS011;36207;51.850;21.698;2022-07-22T08:28:29;8.80;;;4.40;;
50309;SDS011;36207;51.850;21.698;2022-07-22T08:30:55;6.00;;;4.10;;
50309;SDS011;36207;51.850;21.698;2022-07-22T08:33:22;8.30;;;4.30;;
50309;SDS011;36207;51.850;21.698;2022-07-22T08:35:48;7.20;;;4.50;;
50309;SDS011;36207;51.850;21.698;2022-07-22T08:38:15;10.60;;;4.50;;
50309;SDS011;36207;51.850;21.698;2022-07-22T08:40:41;8.10;;;4.50;;
50309;SDS011;36207;51.850;21.698;2022-07-22T08:43:07;10.50;;;4.40;;
50309;SDS011;36207;51.850;21.698;2022-07-22T08:45:34;6.80;;;4.50;;
50309;SDS011;36207;51.850;21.698;2022-07-22T08:48:00;8.50;;;4.30;;
50309;SDS011;36207;51.850;21.698;2022-07-22T08:50:29;6.80;;;4.10;;
50309;SDS011;36207;51.850;21.698;2022-07-22T08:52:56;8.40;;;4.20;;
50309;SDS011;36207;51.850;21.698;2022-07-22T08:55:23;10.70;;;4.90;;
50309;SDS011;36207;51.850;21.698;2022-07-22T08:57:50;11.50;;;5.10;;
50309;SDS011;36207;51.850;21.698;2022-07-22T09:00:18;11.10;;;4.10;;
50309;SDS011;36207;51.850;21.698;2022-07-22T09:02:46;7.10;;;3.90;;
50309;SDS011;36207;51.850;21.698;2022-07-22T09:05:14;7.00;;;4.30;;
50309;SDS011;36207;51.850;21.698;2022-07-22T09:07:43;11.30;;;4.50;;
50309;SDS011;36207;51.850;21.698;2022-07-22T09:10:12;7.30;;;4.00;;
50309;SDS011;36207;51.850;21.698;2022-07-22T09:12:52;9.00;;;4.50;;
50309;SDS011;36207;51.850;21.698;2022-07-22T09:15:25;7.50;;;4.40;;
50309;SDS011;36207;51.850;21.698;2022-07-22T09:18:14;6.90;;;4.00;;
50309;SDS011;36207;51.850;21.698;2022-07-22T09:20:41;11.20;;;4.50;;
50309;SDS011;36207;51.850;21.698;2022-07-22T09:23:14;7.30;;;4.10;;
50309;SDS011;36207;51.850;21.698;2022-07-22T09:25:43;9.00;;;4.20;;
50309;SDS011;36207;51.850;21.698;2022-07-22T09:30:40;6.90;;;4.20;;
50309;SDS011;36207;51.850;21.698;2022-07-22T09:33:18;8.10;;;4.40;;
50309;SDS011;36207;51.850;21.698;2022-07-22T09:35:45;10.00;;;4.00;;
50309;SDS011;36207;51.850;21.698;2022-07-22T09:38:13;8.70;;;4.40;;
50309;SDS011;36207;51.850;21.698;2022-07-22T09:40:42;7.70;;;4.20;;
50309;SDS011;36207;51.850;21.698;2022-07-22T09:43:10;9.30;;;3.90;;
50309;SDS011;36207;51.850;21.698;2022-07-22T09:45:50;8.80;;;4.20;;
50309;SDS011;36207;51.850;21.698;2022-07-22T09:48:20;6.10;;;3.90;;
50309;SDS011;36207;51.850;21.698;2022-07-22T09:50:47;9.90;;;4.20;;
50309;SDS011;36207;51.850;21.698;2022-07-22T09:53:16;7.20;;;4.20;;
50309;SDS011;36207;51.850;21.698;2022-07-22T09:55:46;6.60;;;4.20;;
50309;SDS011;36207;51.850;21.698;2022-07-22T09:58:13;10.70;;;4.30;;
50309;SDS011;36207;51.850;21.698;2022-07-22T10:00:40;6.60;;;4.00;;
50309;SDS011;36207;51.850;21.698;2022-07-22T10:03:13;9.30;;;4.20;;
50309;SDS011;36207;51.850;21.698;2022-07-22T10:05:44;10.80;;;4.40;;
50309;SDS011;36207;51.850;21.698;2022-07-22T10:08:15;15.30;;;4.10;;
50309;SDS011;36207;51.850;21.698;2022-07-22T10:10:50;8.30;;;4.20;;
50309;SDS011;36207;51.850;21.698;2022-07-22T10:13:18;11.30;;;4.40;;
50309;SDS011;36207;51.850;21.698;2022-07-22T10:15:45;9.50;;;4.20;;
50309;SDS011;36207;51.850;21.698;2022-07-22T10:18:16;7.80;;;4.40;;
50309;SDS011;36207;51.850;21.698;2022-07-22T10:20:45;10.00;;;4.00;;
50309;SDS011;36207;51.850;21.698;2022-07-22T10:23:12;8.60;;;4.20;;
50309;SDS011;36207;51.850;21.698;2022-07-22T10:25:58;7.70;;;4.50;;
50309;SDS011;36207;51.850;21.698;2022-07-22T10:28:27;10.00;;;4.10;;
50309;SDS011;36207;51.850;21.698;2022-07-22T10:31:16;7.50;;;3.80;;
50309;SDS011;36207;51.850;21.698;2022-07-22T10:33:47;7.80;;;4.00;;
50309;SDS011;36207;51.850;21.698;2022-07-22T10:36:36;8.60;;;4.30;;
50309;SDS011;36207;51.850;21.698;2022-07-22T10:39:09;6.80;;;4.10;;
50309;SDS011;36207;51.850;21.698;2022-07-22T10:41:42;6.50;;;4.10;;
50309;SDS011;36207;51.850;21.698;2022-07-22T10:44:14;7.40;;;4.20;;
50309;SDS011;36207;51.850;21.698;2022-07-22T10:47:14;14.20;;;4.40;;
50309;SDS011;36207;51.850;21.698;2022-07-22T10:49:40;6.60;;;3.80;;
50309;SDS011;36207;51.850;21.698;2022-07-22T10:57:42;7.00;;;4.00;;
50309;SDS011;36207;51.850;21.698;2022-07-22T11:00:09;10.70;;;4.20;;
50309;SDS011;36207;51.850;21.698;2022-07-22T11:02:37;7.70;;;4.40;;
50309;SDS011;36207;51.850;21.698;2022-07-22T11:05:04;8.00;;;4.10;;
50309;SDS011;36207;51.850;21.698;2022-07-22T11:07:31;9.60;;;4.20;;
50309;SDS011;36207;51.850;21.698;2022-07-22T11:10:18;11.30;;;4.50;;
50309;SDS011;36207;51.850;21.698;2022-07-22T11:12:47;8.00;;;4.00;;
50309;SDS011;36207;51.850;21.698;2022-07-22T11:15:15;8.10;;;4.20;;
50309;SDS011;36207;51.850;21.698;2022-07-22T11:17:42;10.10;;;4.30;;
50309;SDS011;36207;51.850;21.698;2022-07-22T11:20:10;9.70;;;4.00;;
50309;SDS011;36207;51.850;21.698;2022-07-22T11:22:38;9.40;;;4.20;;
50309;SDS011;36207;51.850;21.698;2022-07-22T11:25:07;10.30;;;4.40;;
50309;SDS011;36207;51.850;21.698;2022-07-22T11:27:34;7.90;;;4.30;;
50309;SDS011;36207;51.850;21.698;2022-07-22T11:30:01;9.00;;;4.00;;
50309;SDS011;36207;51.850;21.698;2022-07-22T11:32:30;12.90;;;4.30;;
50309;SDS011;36207;51.850;21.698;2022-07-22T11:34:58;9.00;;;4.30;;
50309;SDS011;36207;51.850;21.698;2022-07-22T11:37:27;10.80;;;4.80;;
50309;SDS011;36207;51.850;21.698;2022-07-22T11:40:01;8.80;;;4.10;;
50309;SDS011;36207;51.850;21.698;2022-07-22T11:42:31;12.20;;;4.50;;
50309;SDS011;36207;51.850;21.698;2022-07-22T11:44:58;7.70;;;4.50;;
50309;SDS011;36207;51.850;21.698;2022-07-22T11:47:24;9.90;;;4.40;;
50309;SDS011;36207;51.850;21.698;2022-07-22T11:49:51;9.40;;;4.50;;
50309;SDS011;36207;51.850;21.698;2022-07-22T11:52:18;7.40;;;4.20;;
50309;SDS011;36207;51.850;21.698;2022-07-22T11:54:45;12.40;;;4.30;;
50309;SDS011;36207;51.850;21.698;2022-07-22T11:57:12;10.90;;;4.20;;
50309;SDS011;36207;51.850;21.698;2022-07-22T11:59:45;9.00;;;4.30;;
50309;SDS011;36207;51.850;21.698;2022-07-22T12:02:13;11.10;;;4.40;;
50309;SDS011;36207;51.850;21.698;2022-07-22T12:04:40;8.00;;;4.30;;
50309;SDS011;36207;51.850;21.698;2022-07-22T12:07:10;9.20;;;4.30;;
50309;SDS011;36207;51.850;21.698;2022-07-22T12:09:37;8.60;;;4.40;;
50309;SDS011;36207;51.850;21.698;2022-07-22T12:12:07;8.50;;;4.30;;
50309;SDS011;36207;51.850;21.698;2022-07-22T12:14:33;10.20;;;4.50;;
50309;SDS011;36207;51.850;21.698;2022-07-22T12:17:03;11.60;;;4.40;;
50309;SDS011;36207;51.850;21.698;2022-07-22T12:19:33;7.40;;;4.60;;
50309;SDS011;36207;51.850;21.698;2022-07-22T12:22:02;7.00;;;4.20;;
50309;SDS011;36207;51.850;21.698;2022-07-22T12:24:45;11.70;;;4.70;;
50309;SDS011;36207;51.850;21.698;2022-07-22T12:27:23;8.10;;;4.60;;
50309;SDS011;36207;51.850;21.698;2022-07-22T12:29:49;9.90;;;4.80;;
50309;SDS011;36207;51.850;21.698;2022-07-22T12:32:17;8.60;;;4.20;;
50309;SDS011;36207;51.850;21.698;2022-07-22T12:42:43;10.90;;;4.50;;
50309;SDS011;36207;51.850;21.698;2022-07-22T12:45:15;9.90;;;4.40;;
50309;SDS011;36207;51.850;21.698;2022-07-22T12:50:25;7.10;;;4.00;;
50309;SDS011;36207;51.850;21.698;2022-07-22T12:53:11;8.60;;;4.20;;
50309;SDS011;36207;51.850;21.698;2022-07-22T12:55:43;10.40;;;4.60;;
50309;SDS011;36207;51.850;21.698;2022-07-22T12:58:10;8.50;;;4.50;;
50309;SDS011;36207;51.850;21.698;2022-07-22T13:00:39;13.40;;;4.50;;
50309;SDS011;36207;51.850;21.698;2022-07-22T13:03:07;18.40;;;4.50;;
50309;SDS011;36207;51.850;21.698;2022-07-22T13:05:33;11.30;;;4.70;;
50309;SDS011;36207;51.850;21.698;2022-07-22T13:08:01;9.40;;;4.70;;
50309;SDS011;36207;51.850;21.698;2022-07-22T13:10:28;15.40;;;4.40;;
50309;SDS011;36207;51.850;21.698;2022-07-22T13:12:55;9.50;;;4.50;;
50309;SDS011;36207;51.850;21.698;2022-07-22T13:15:22;8.90;;;4.30;;
50309;SDS011;36207;51.850;21.698;2022-07-22T13:17:49;9.60;;;4.40;;
50309;SDS011;36207;51.850;21.698;2022-07-22T13:20:16;14.10;;;5.00;;
50309;SDS011;36207;51.850;21.698;2022-07-22T13:22:45;9.40;;;4.80;;
50309;SDS011;36207;51.850;21.698;2022-07-22T13:25:12;9.90;;;5.00;;
50309;SDS011;36207;51.850;21.698;2022-07-22T13:27:40;10.00;;;5.10;;
50309;SDS011;36207;51.850;21.698;2022-07-22T13:30:07;7.90;;;4.90;;
50309;SDS011;36207;51.850;21.698;2022-07-22T13:32:34;11.80;;;5.70;;
50309;SDS011;36207;51.850;21.698;2022-07-22T13:35:01;11.50;;;5.00;;
50309;SDS011;36207;51.850;21.698;2022-07-22T13:37:28;11.50;;;5.10;;
50309;SDS011;36207;51.850;21.698;2022-07-22T13:39:54;10.10;;;5.60;;
50309;SDS011;36207;51.850;21.698;2022-07-22T13:42:21;11.90;;;5.40;;
50309;SDS011;36207;51.850;21.698;2022-07-22T13:44:48;9.70;;;5.20;;
50309;SDS011;36207;51.850;21.698;2022-07-22T13:47:17;10.20;;;4.90;;
50309;SDS011;36207;51.850;21.698;2022-07-22T13:49:44;9.20;;;5.10;;
50309;SDS011;36207;51.850;21.698;2022-07-22T13:52:12;13.00;;;5.10;;
50309;SDS011;36207;51.850;21.698;2022-07-22T13:54:39;19.80;;;6.50;;
50309;SDS011;36207;51.850;21.698;2022-07-22T13:57:05;8.90;;;5.40;;
50309;SDS011;36207;51.850;21.698;2022-07-22T13:59:32;12.40;;;5.50;;
50309;SDS011;36207;51.850;21.698;2022-07-22T14:01:59;13.00;;;5.70;;
50309;SDS011;36207;51.850;21.698;2022-07-22T14:04:27;14.60;;;5.90;;
50309;SDS011;36207;51.850;21.698;2022-07-22T14:06:53;10.70;;;6.00;;
50309;SDS011;36207;51.850;21.698;2022-07-22T14:09:20;9.40;;;5.40;;
50309;SDS011;36207;51.850;21.698;2022-07-22T14:11:47;9.80;;;5.80;;
50309;SDS011;36207;51.850;21.698;2022-07-22T14:14:13;10.70;;;5.70;;
50309;SDS011;36207;51.850;21.698;2022-07-22T14:16:40;13.20;;;6.80;;
50309;SDS011;36207;51.850;21.698;2022-07-22T14:19:10;9.30;;;5.90;;
50309;SDS011;36207;51.850;21.698;2022-07-22T14:21:39;8.90;;;6.00;;
50309;SDS011;36207;51.850;21.698;2022-07-22T14:24:07;15.50;;;6.40;;
50309;SDS011;36207;51.850;21.698;2022-07-22T14:26:35;16.40;;;6.80;;
50309;SDS011;36207;51.850;21.698;2022-07-22T14:29:02;15.60;;;6.70;;
50309;SDS011;36207;51.850;21.698;2022-07-22T14:31:31;14.20;;;6.50;;
50309;SDS011;36207;51.850;21.698;2022-07-22T14:33:58;10.50;;;5.70;;
50309;SDS011;36207;51.850;21.698;2022-07-22T14:36:24;12.20;;;6.40;;
50309;SDS011;36207;51.850;21.698;2022-07-22T14:38:51;10.50;;;6.40;;
50309;SDS011;36207;51.850;21.698;2022-07-22T14:41:19;12.80;;;6.40;;
50309;SDS011;36207;51.850;21.698;2022-07-22T14:43:46;12.70;;;6.50;;
50309;SDS011;36207;51.850;21.698;2022-07-22T14:46:13;12.90;;;6.40;;